createdAt,value
2017-09-25T00:00:06.199Z,46.03
2017-09-25T00:02:33.698Z,45.73
2017-09-25T00:05:01.193Z,44.90
2017-09-25T00:07:28.657Z,43.70
2017-09-25T00:09:56.318Z,40.37
2017-09-25T00:12:23.812Z,40.70
2017-09-25T00:14:51.291Z,39.33
2017-09-25T00:17:19.534Z,42.17
2017-09-25T00:19:47.035Z,40.90
2017-09-25T00:22:14.549Z,41.33
2017-09-25T00:24:42.046Z,42.63
2017-09-25T00:27:09.554Z,43.07
2017-09-25T00:29:37.072Z,43.53
2017-09-25T00:32:04.607Z,41.10
2017-09-25T00:34:33.217Z,43.13
2017-09-25T00:37:00.693Z,44.17
2017-09-25T00:39:28.240Z,45.27
2017-09-25T00:41:55.720Z,45.47
2017-09-25T00:44:23.197Z,46.30
2017-09-25T00:46:50.661Z,47.03
2017-09-25T00:49:18.224Z,81.63
2017-09-25T00:51:46.490Z,84.53
2017-09-25T00:54:14.720Z,96.40
2017-09-25T00:56:42.201Z,83.83
2017-09-25T00:59:21.839Z,111.83
2017-09-25T01:02:01.191Z,111.63
2017-09-25T01:07:34.983Z,79.23
2017-09-25T01:10:02.787Z,68.60
2017-09-25T01:12:30.329Z,66.83
2017-09-25T01:14:57.866Z,63.50
2017-09-25T01:17:26.169Z,61.60
2017-09-25T01:19:53.647Z,64.50
2017-09-25T01:22:21.119Z,64.07
2017-09-25T01:24:49.466Z,67.70
2017-09-25T01:27:16.948Z,64.50
2017-09-25T01:29:45.222Z,58.63
2017-09-25T01:32:12.905Z,58.23
2017-09-25T01:34:41.757Z,59.00
2017-09-25T01:37:09.223Z,52.90
2017-09-25T01:39:36.748Z,52.70
2017-09-25T01:42:04.274Z,53.63
2017-09-25T01:44:32.837Z,50.40
2017-09-25T01:47:01.096Z,61.77
2017-09-25T01:49:29.745Z,63.70
2017-09-25T01:51:57.220Z,51.47
2017-09-25T01:54:24.730Z,53.40
2017-09-25T01:56:53.275Z,50.90
2017-09-25T01:59:20.761Z,51.47
2017-09-25T02:01:49.027Z,53.53
2017-09-25T02:04:17.295Z,55.00
2017-09-25T02:06:44.902Z,56.50
2017-09-25T02:09:12.518Z,64.40
2017-09-25T02:11:40.769Z,64.07
2017-09-25T02:14:08.292Z,62.80
2017-09-25T02:16:35.842Z,60.83
2017-09-25T02:19:03.386Z,64.80
2017-09-25T02:21:31.676Z,59.00
2017-09-25T02:23:59.154Z,63.30
2017-09-25T02:26:26.625Z,65.57
2017-09-25T02:28:54.128Z,63.10
2017-09-25T02:31:22.373Z,61.57
2017-09-25T02:33:49.965Z,58.93
2017-09-25T02:36:18.285Z,65.60
2017-09-25T02:38:45.767Z,66.33
2017-09-25T02:41:13.258Z,72.10
2017-09-25T02:43:42.258Z,72.30
2017-09-25T02:46:10.802Z,64.43
2017-09-25T02:48:39.795Z,59.90
2017-09-25T02:51:07.314Z,57.20
2017-09-25T02:53:34.826Z,63.13
2017-09-25T02:56:02.318Z,61.90
2017-09-25T02:58:29.896Z,61.10
2017-09-25T03:00:57.395Z,57.57
2017-09-25T03:03:24.981Z,63.50
2017-09-25T03:05:53.213Z,61.43
2017-09-25T03:08:20.948Z,59.60
2017-09-25T03:10:48.457Z,59.43
2017-09-25T03:13:15.916Z,56.20
2017-09-25T03:15:44.306Z,59.97
2017-09-25T03:18:12.569Z,58.60
2017-09-25T03:20:40.051Z,56.83
2017-09-25T03:23:08.345Z,52.70
2017-09-25T03:25:35.868Z,56.23
2017-09-25T03:28:03.370Z,55.27
2017-09-25T03:30:30.860Z,51.73
2017-09-25T03:32:58.369Z,51.73
2017-09-25T03:35:26.106Z,51.27
2017-09-25T03:37:54.342Z,49.30
2017-09-25T03:40:21.828Z,57.37
2017-09-25T03:42:49.309Z,55.07
2017-09-25T03:45:17.573Z,53.63
2017-09-25T03:47:45.869Z,52.00
2017-09-25T03:50:14.091Z,47.57
2017-09-25T03:52:41.657Z,56.67
2017-09-25T03:55:09.250Z,55.63
2017-09-25T03:57:38.063Z,55.53
2017-09-25T04:00:05.935Z,54.17
2017-09-25T04:02:33.435Z,50.03
2017-09-25T04:05:00.898Z,51.53
2017-09-25T04:07:28.428Z,50.77
2017-09-25T04:09:56.227Z,46.87
2017-09-25T04:12:23.911Z,77.40
2017-09-25T04:14:52.733Z,155.23
2017-09-25T04:17:20.262Z,157.00
2017-09-25T04:19:48.609Z,132.10
2017-09-25T04:22:16.073Z,111.33
2017-09-25T04:24:43.759Z,106.93
2017-09-25T04:27:12.003Z,129.77
2017-09-25T04:29:39.467Z,86.33
2017-09-25T04:32:07.779Z,73.30
2017-09-25T04:34:36.142Z,95.60
2017-09-25T04:37:04.501Z,77.80
2017-09-25T04:39:31.967Z,139.20
2017-09-25T04:42:00.727Z,131.30
2017-09-25T04:44:28.256Z,138.53
2017-09-25T04:46:55.767Z,140.53
2017-09-25T04:49:23.487Z,119.57
2017-09-25T04:51:51.891Z,134.50
2017-09-25T04:54:19.341Z,80.63
2017-09-25T04:56:46.826Z,69.63
2017-09-25T04:59:15.118Z,58.97
2017-09-25T05:01:43.426Z,67.73
2017-09-25T05:04:11.016Z,87.90
2017-09-25T05:06:38.569Z,64.67
2017-09-25T05:09:06.093Z,63.60
2017-09-25T05:11:33.591Z,61.67
2017-09-25T05:14:01.085Z,59.57
2017-09-25T05:16:28.583Z,59.93
2017-09-25T05:18:56.084Z,65.50
2017-09-25T05:21:23.635Z,66.53
2017-09-25T05:23:51.247Z,67.57
2017-09-25T05:26:18.795Z,63.27
2017-09-25T05:28:47.077Z,58.73
2017-09-25T05:31:14.556Z,53.70
2017-09-25T05:33:42.934Z,64.87
2017-09-25T05:36:10.456Z,90.60
2017-09-25T05:38:38.755Z,147.23
2017-09-25T05:41:06.389Z,135.30
2017-09-25T05:43:33.982Z,136.97
2017-09-25T05:46:01.434Z,158.27
2017-09-25T05:48:28.933Z,109.83
2017-09-25T05:50:56.443Z,145.67
2017-09-25T05:53:23.929Z,138.07
2017-09-25T05:55:51.408Z,137.70
2017-09-25T05:58:18.900Z,90.90
2017-09-25T06:00:46.404Z,79.53
2017-09-25T06:03:14.022Z,74.83
2017-09-25T06:05:41.505Z,79.60
2017-09-25T06:08:08.990Z,78.70
2017-09-25T06:10:36.684Z,66.00
2017-09-25T06:13:04.969Z,61.23
2017-09-25T06:15:33.294Z,62.90
2017-09-25T06:18:00.873Z,60.20
2017-09-25T06:20:28.349Z,56.47
2017-09-25T06:22:56.186Z,54.93
2017-09-25T06:25:23.680Z,51.23
2017-09-25T06:27:51.943Z,46.80
2017-09-25T06:30:19.409Z,48.13
2017-09-25T06:32:47.647Z,40.30
2017-09-25T06:35:15.174Z,44.07
2017-09-25T06:37:42.794Z,42.63
2017-09-25T06:40:10.277Z,45.47
2017-09-25T06:42:38.520Z,49.00
2017-09-25T06:45:06.035Z,44.53
2017-09-25T06:47:33.722Z,44.57
2017-09-25T06:50:01.216Z,33.50
2017-09-25T06:52:29.462Z,36.57
2017-09-25T06:54:56.994Z,35.73
2017-09-25T06:57:24.510Z,34.87
2017-09-25T06:59:53.287Z,33.50
2017-09-25T07:02:20.770Z,35.27
2017-09-25T07:04:48.246Z,35.03
2017-09-25T07:07:15.766Z,37.70
2017-09-25T07:09:43.268Z,33.47
2017-09-25T07:12:10.811Z,34.67
2017-09-25T07:14:38.297Z,36.13
2017-09-25T07:17:05.791Z,35.73
2017-09-25T07:19:34.109Z,33.10
2017-09-25T07:22:02.963Z,35.10
2017-09-25T07:24:31.598Z,34.17
2017-09-25T07:26:59.114Z,37.50
2017-09-25T07:29:27.358Z,36.80
2017-09-25T07:31:54.925Z,31.33
2017-09-25T07:34:22.407Z,33.10
2017-09-25T07:36:50.634Z,37.17
2017-09-25T07:39:18.177Z,35.93
2017-09-25T07:41:45.746Z,38.23
2017-09-25T07:44:13.233Z,33.73
2017-09-25T07:46:40.764Z,35.60
2017-09-25T07:49:08.282Z,39.30
2017-09-25T07:51:35.747Z,36.73
2017-09-25T07:54:03.253Z,37.70
2017-09-25T07:56:30.843Z,35.67
2017-09-25T07:58:58.544Z,35.57
2017-09-25T08:01:26.078Z,34.40
2017-09-25T08:03:54.791Z,35.13
2017-09-25T08:06:22.842Z,33.80
2017-09-25T08:08:50.343Z,31.23
2017-09-25T08:11:17.939Z,37.50
2017-09-25T08:13:46.303Z,39.03
2017-09-25T08:16:13.818Z,38.70
2017-09-25T08:18:41.356Z,38.40
2017-09-25T08:23:42.121Z,34.50
2017-09-25T08:26:09.601Z,31.93
2017-09-25T08:28:37.181Z,29.17
2017-09-25T08:31:04.870Z,27.30
2017-09-25T08:33:33.129Z,24.97
2017-09-25T08:36:01.361Z,27.10
2017-09-25T08:38:28.867Z,27.90
2017-09-25T08:40:56.352Z,23.77
2017-09-25T08:43:24.092Z,24.37
2017-09-25T08:45:52.446Z,25.37
2017-09-25T08:48:20.008Z,25.10
2017-09-25T08:50:48.211Z,22.07
2017-09-25T08:53:16.482Z,21.80
2017-09-25T08:55:44.962Z,23.00
2017-09-25T08:58:13.296Z,20.90
2017-09-25T09:00:40.779Z,21.00
2017-09-25T09:03:08.271Z,17.37
2017-09-25T09:05:35.781Z,18.10
2017-09-25T09:08:03.324Z,17.93
2017-09-25T09:10:30.808Z,19.23
2017-09-25T09:12:58.688Z,18.60
2017-09-25T09:15:26.236Z,19.43
2017-09-25T09:17:53.716Z,20.70
2017-09-25T09:20:21.960Z,20.73
2017-09-25T09:22:49.482Z,18.47
2017-09-25T09:25:17.348Z,20.20
2017-09-25T09:27:44.864Z,21.80
2017-09-25T09:30:12.375Z,22.27
2017-09-25T09:32:39.852Z,20.17
2017-09-25T09:35:07.322Z,19.20
2017-09-25T09:37:34.890Z,17.40
2017-09-25T09:40:02.368Z,19.67
2017-09-25T09:42:30.663Z,18.27
2017-09-25T09:44:58.142Z,20.00
2017-09-25T09:47:25.634Z,18.20
2017-09-25T09:49:53.325Z,18.43
2017-09-25T09:52:20.827Z,18.43
2017-09-25T09:54:48.314Z,19.13
2017-09-25T09:57:15.872Z,16.70
2017-09-25T09:59:43.356Z,16.37
2017-09-25T10:02:10.987Z,15.40
2017-09-25T10:04:38.476Z,13.90
2017-09-25T10:07:06.758Z,14.70
2017-09-25T10:09:34.248Z,15.10
2017-09-25T10:12:01.749Z,15.17
2017-09-25T10:14:29.601Z,14.47
2017-09-25T10:16:57.072Z,15.17
2017-09-25T10:19:25.351Z,15.20
2017-09-25T10:21:52.876Z,14.67
2017-09-25T10:24:20.417Z,16.80
2017-09-25T10:26:49.238Z,16.60
2017-09-25T10:29:16.746Z,15.60
2017-09-25T10:31:44.230Z,15.57
2017-09-25T10:34:11.714Z,17.07
2017-09-25T10:36:39.202Z,15.70
2017-09-25T10:39:07.514Z,17.10
2017-09-25T10:41:35.014Z,16.30
2017-09-25T10:44:02.577Z,13.93
2017-09-25T10:46:30.099Z,16.30
2017-09-25T10:48:57.573Z,16.73
2017-09-25T10:51:25.106Z,15.73
2017-09-25T10:53:53.070Z,17.53
2017-09-25T10:56:20.554Z,16.30
2017-09-25T10:58:48.038Z,16.27
2017-09-25T11:01:16.774Z,13.37
2017-09-25T11:03:44.294Z,13.67
2017-09-25T11:06:12.638Z,14.00
2017-09-25T11:08:40.120Z,12.93
2017-09-25T11:11:07.612Z,14.40
2017-09-25T11:13:35.083Z,13.17
2017-09-25T11:16:02.603Z,13.57
2017-09-25T11:18:30.879Z,12.50
2017-09-25T11:20:59.134Z,13.10
2017-09-25T11:23:26.621Z,12.30
2017-09-25T11:25:54.895Z,14.00
2017-09-25T11:28:23.469Z,12.10
2017-09-25T11:30:51.769Z,11.77
2017-09-25T11:33:19.303Z,12.10
2017-09-25T11:35:47.638Z,9.90
2017-09-25T11:38:15.130Z,8.80
2017-09-25T11:40:42.649Z,8.77
2017-09-25T11:43:10.154Z,8.20
2017-09-25T11:45:38.407Z,9.73
2017-09-25T11:48:05.958Z,9.90
2017-09-25T11:50:33.466Z,7.77
2017-09-25T11:53:00.957Z,8.97
2017-09-25T11:55:28.457Z,6.93
2017-09-25T11:57:56.004Z,5.63
2017-09-25T12:00:23.760Z,6.83
2017-09-25T12:02:51.233Z,6.53
2017-09-25T12:05:18.845Z,6.47
2017-09-25T12:07:46.326Z,5.60
2017-09-25T12:10:16.783Z,5.83
2017-09-25T12:12:44.269Z,6.37
2017-09-25T12:15:11.766Z,5.70
2017-09-25T12:17:39.458Z,6.10
2017-09-25T12:20:06.959Z,5.80
2017-09-25T12:22:34.435Z,4.80
2017-09-25T12:25:02.026Z,4.77
2017-09-25T12:27:29.512Z,4.17
2017-09-25T12:29:57.762Z,4.00
2017-09-25T12:32:25.279Z,4.47
2017-09-25T12:34:53.009Z,3.50
2017-09-25T12:37:21.236Z,3.70
2017-09-25T12:39:48.716Z,4.17
2017-09-25T12:42:17.186Z,4.43
2017-09-25T12:44:44.657Z,4.10
2017-09-25T12:47:12.973Z,3.67
2017-09-25T12:49:40.449Z,3.53
2017-09-25T12:52:08.070Z,3.60
2017-09-25T12:54:36.403Z,4.43
2017-09-25T12:57:03.869Z,3.50
2017-09-25T12:59:31.359Z,3.30
2017-09-25T13:01:58.881Z,4.00
2017-09-25T13:04:26.378Z,3.70
2017-09-25T13:06:54.647Z,2.80
2017-09-25T13:09:22.887Z,4.03
2017-09-25T13:11:50.587Z,4.23
2017-09-25T13:14:18.811Z,3.63
2017-09-25T13:16:46.333Z,4.30
2017-09-25T13:19:13.902Z,4.20
2017-09-25T13:21:41.360Z,3.60
2017-09-25T13:24:08.877Z,3.30
2017-09-25T13:26:37.155Z,3.80
2017-09-25T13:29:04.610Z,3.67
2017-09-25T13:31:32.111Z,4.40
2017-09-25T13:33:59.571Z,3.93
2017-09-25T13:36:27.183Z,2.90
2017-09-25T13:38:54.688Z,3.03
2017-09-25T13:41:22.208Z,3.70
2017-09-25T13:43:50.453Z,3.90
2017-09-25T13:46:17.945Z,4.60
2017-09-25T13:48:46.189Z,4.27
2017-09-25T13:51:13.678Z,4.07
2017-09-25T13:53:42.196Z,5.10
2017-09-25T13:56:09.676Z,5.40
2017-09-25T14:03:43.986Z,5.00
2017-09-25T14:06:11.465Z,6.23
2017-09-25T14:08:38.945Z,6.20
2017-09-25T14:11:06.637Z,5.03
2017-09-25T14:13:34.120Z,5.03
2017-09-25T14:16:01.590Z,4.00
2017-09-25T14:18:29.139Z,3.80
2017-09-25T14:20:56.643Z,4.20
2017-09-25T14:23:24.113Z,3.50
2017-09-25T14:25:51.726Z,4.40
2017-09-25T14:28:19.218Z,4.20
2017-09-25T14:30:46.688Z,3.10
2017-09-25T14:33:14.269Z,3.83
2017-09-25T14:35:42.567Z,4.07
2017-09-25T14:38:10.138Z,3.50
2017-09-25T14:40:37.708Z,3.50
2017-09-25T14:43:05.227Z,3.90
2017-09-25T14:45:34.451Z,3.60
2017-09-25T14:48:02.070Z,3.17
2017-09-25T14:50:30.390Z,3.77
2017-09-25T14:52:57.982Z,3.43
2017-09-25T14:55:25.645Z,4.03
2017-09-25T14:57:53.107Z,3.10
2017-09-25T15:00:20.731Z,4.20
2017-09-25T15:02:48.188Z,3.77
2017-09-25T15:05:15.688Z,3.80
2017-09-25T15:07:43.194Z,3.50
2017-09-25T15:10:10.677Z,4.10
2017-09-25T15:12:38.166Z,4.43
2017-09-25T15:15:05.640Z,3.43
2017-09-25T15:17:33.889Z,3.70
2017-09-25T15:20:01.401Z,3.60
2017-09-25T15:22:28.874Z,4.23
2017-09-25T15:24:56.398Z,3.67
2017-09-25T15:27:24.631Z,4.37
2017-09-25T15:29:52.247Z,4.37
2017-09-25T15:32:19.740Z,4.70
2017-09-25T15:34:47.241Z,5.50
2017-09-25T15:37:15.767Z,4.73
2017-09-25T15:39:44.829Z,4.70
2017-09-25T15:42:12.294Z,4.50
2017-09-25T15:44:40.983Z,4.90
2017-09-25T15:47:09.277Z,4.63
2017-09-25T15:49:36.801Z,4.83
2017-09-25T15:52:05.091Z,4.80
2017-09-25T15:54:33.392Z,4.30
2017-09-25T15:57:00.890Z,4.63
2017-09-25T15:59:28.365Z,4.17
2017-09-25T16:01:56.788Z,4.83
2017-09-25T16:04:24.286Z,5.13
2017-09-25T16:06:51.758Z,4.97
2017-09-25T16:09:20.973Z,4.60
2017-09-25T16:11:48.412Z,5.60
2017-09-25T16:14:16.679Z,5.13
2017-09-25T16:16:44.144Z,6.30
2017-09-25T16:19:12.409Z,4.90
2017-09-25T16:21:39.892Z,5.60
2017-09-25T16:24:08.160Z,6.00
2017-09-25T16:26:36.413Z,5.50
2017-09-25T16:29:03.979Z,6.37
2017-09-25T16:31:31.485Z,5.33
2017-09-25T16:33:58.982Z,5.20
2017-09-25T16:36:26.664Z,4.80
2017-09-25T16:38:54.150Z,5.43
2017-09-25T16:41:21.690Z,5.30
2017-09-25T16:43:49.933Z,6.03
2017-09-25T16:46:17.404Z,5.70
2017-09-25T16:48:44.942Z,6.70
2017-09-25T16:51:12.415Z,6.33
2017-09-25T16:53:40.105Z,6.03
2017-09-25T16:56:08.337Z,5.70
2017-09-25T16:58:35.839Z,6.10
2017-09-25T17:01:04.084Z,6.00
2017-09-25T17:03:32.356Z,5.97
2017-09-25T17:05:59.871Z,6.40
2017-09-25T17:08:27.351Z,5.97
2017-09-25T17:10:54.970Z,6.70
2017-09-25T17:13:23.268Z,6.43
2017-09-25T17:15:51.573Z,6.30
2017-09-25T17:18:19.262Z,7.07
2017-09-25T17:20:46.806Z,6.70
2017-09-25T17:23:14.285Z,6.60
2017-09-25T17:25:42.569Z,7.10
2017-09-25T17:28:10.834Z,7.20
2017-09-25T17:30:38.377Z,6.93
2017-09-25T17:33:06.038Z,7.97
2017-09-25T17:35:33.731Z,6.47
2017-09-25T17:38:01.979Z,5.87
2017-09-25T17:40:29.523Z,7.50
2017-09-25T17:42:58.018Z,7.43
2017-09-25T17:45:25.580Z,8.37
2017-09-25T17:47:53.817Z,7.00
2017-09-25T17:50:21.578Z,7.73
2017-09-25T17:52:49.274Z,7.10
2017-09-25T17:55:16.802Z,7.63
2017-09-25T17:57:44.316Z,7.93
2017-09-25T18:00:12.815Z,7.47
2017-09-25T18:02:40.391Z,7.57
2017-09-25T18:05:07.866Z,7.90
2017-09-25T18:07:35.418Z,7.53
2017-09-25T18:10:02.934Z,7.87
2017-09-25T18:12:31.371Z,7.97
2017-09-25T18:14:58.866Z,8.33
2017-09-25T18:17:27.134Z,8.80
2017-09-25T18:19:55.422Z,8.30
2017-09-25T18:22:23.698Z,8.67
2017-09-25T18:24:51.984Z,9.77
2017-09-25T18:27:20.259Z,10.27
2017-09-25T18:29:48.671Z,9.00
2017-09-25T18:32:16.143Z,10.50
2017-09-25T18:34:43.783Z,10.70
2017-09-25T18:37:11.268Z,11.97
2017-09-25T18:39:39.111Z,10.73
2017-09-25T18:42:06.851Z,11.73
2017-09-25T18:44:34.326Z,11.27
2017-09-25T18:47:02.443Z,12.40
2017-09-25T18:49:29.956Z,13.20
2017-09-25T18:51:57.491Z,15.53
2017-09-25T18:54:25.893Z,12.33
2017-09-25T18:56:53.425Z,12.37
2017-09-25T18:59:21.934Z,13.10
2017-09-25T19:01:49.426Z,12.47
2017-09-25T19:04:16.942Z,13.03
2017-09-25T19:06:44.465Z,13.00
2017-09-25T19:09:12.794Z,29.70
2017-09-25T19:11:40.506Z,22.07
2017-09-25T19:14:07.978Z,21.67
2017-09-25T19:16:36.227Z,31.77
2017-09-25T19:19:03.841Z,21.43
2017-09-25T19:21:31.384Z,19.77
2017-09-25T19:23:59.814Z,22.20
2017-09-25T19:26:27.303Z,38.20
2017-09-25T19:28:55.682Z,37.00
2017-09-25T19:31:23.983Z,30.00
2017-09-25T19:33:51.485Z,35.87
2017-09-25T19:36:19.090Z,27.97
2017-09-25T19:38:47.342Z,23.90
2017-09-25T19:41:15.697Z,20.00
2017-09-25T19:43:43.215Z,30.53
2017-09-25T19:46:10.789Z,41.67
2017-09-25T19:48:44.153Z,35.33
2017-09-25T19:51:14.403Z,37.10
2017-09-25T19:53:41.927Z,26.07
2017-09-25T19:56:13.181Z,23.20
2017-09-25T19:58:53.576Z,23.67
2017-09-25T20:01:21.081Z,22.07
2017-09-25T20:03:48.552Z,23.80
2017-09-25T20:06:16.827Z,33.90
2017-09-25T20:08:45.089Z,48.70
2017-09-25T20:11:13.711Z,27.53
2017-09-25T20:13:41.216Z,31.47
2017-09-25T20:16:13.758Z,28.67
2017-09-25T20:18:41.379Z,21.17
2017-09-25T20:21:10.645Z,24.43
2017-09-25T20:23:38.163Z,19.63
2017-09-25T20:26:05.738Z,19.10
2017-09-25T20:28:33.318Z,20.90
2017-09-25T20:31:00.802Z,21.43
2017-09-25T20:33:29.061Z,28.00
2017-09-25T20:35:56.569Z,26.00
2017-09-25T20:38:24.046Z,24.73
2017-09-25T20:40:54.113Z,23.17
2017-09-25T20:46:24.138Z,16.83
2017-09-25T20:48:51.659Z,19.00
2017-09-25T20:51:19.369Z,20.53
2017-09-25T20:53:47.635Z,18.87
2017-09-25T20:56:15.175Z,20.07
2017-09-25T20:58:42.674Z,14.93
2017-09-25T21:01:10.345Z,17.93
2017-09-25T21:03:37.982Z,15.73
2017-09-25T21:06:05.463Z,16.87
2017-09-25T21:08:32.949Z,16.80
2017-09-25T21:11:00.458Z,16.20
2017-09-25T21:13:28.745Z,15.53
2017-09-25T21:15:57.230Z,16.37
2017-09-25T21:18:25.487Z,16.23
2017-09-25T21:20:53.083Z,16.47
2017-09-25T21:23:20.599Z,16.33
2017-09-25T21:25:49.694Z,14.90
2017-09-25T21:28:18.151Z,15.83
2017-09-25T21:30:45.643Z,17.50
2017-09-25T21:33:13.961Z,15.27
2017-09-25T21:35:41.522Z,16.40
2017-09-25T21:38:09.022Z,16.50
2017-09-25T21:40:36.730Z,16.50
2017-09-25T21:43:04.208Z,15.30
2017-09-25T21:45:31.759Z,15.70
2017-09-25T21:47:59.287Z,14.87
2017-09-25T21:50:27.615Z,15.47
2017-09-25T21:52:55.296Z,15.47
2017-09-25T21:55:22.780Z,15.93
2017-09-25T21:57:51.037Z,16.37
2017-09-25T22:00:18.550Z,16.90
2017-09-25T22:02:46.041Z,15.27
2017-09-25T22:05:13.751Z,16.93
2017-09-25T22:07:41.246Z,16.30
2017-09-25T22:10:08.922Z,16.77
2017-09-25T22:12:36.437Z,15.70
2017-09-25T22:15:03.940Z,16.47
2017-09-25T22:17:31.615Z,15.20
2017-09-25T22:19:59.087Z,15.30
2017-09-25T22:22:27.334Z,16.13
2017-09-25T22:24:54.921Z,14.00
2017-09-25T22:27:23.169Z,15.60
2017-09-25T22:29:50.670Z,15.97
2017-09-25T22:32:18.200Z,14.57
2017-09-25T22:34:45.714Z,16.33
2017-09-25T22:37:13.205Z,14.70
2017-09-25T22:39:40.704Z,15.27
2017-09-25T22:42:08.204Z,14.33
2017-09-25T22:44:42.339Z,15.00
2017-09-25T22:47:10.205Z,16.50
2017-09-25T22:49:37.724Z,16.20
2017-09-25T22:52:05.191Z,14.77
2017-09-25T22:54:32.685Z,14.60
2017-09-25T22:57:00.965Z,14.60
2017-09-25T22:59:28.492Z,14.87
2017-09-25T23:01:55.982Z,15.87
2017-09-25T23:04:24.223Z,15.60
2017-09-25T23:06:51.731Z,16.37
2017-09-25T23:09:21.766Z,14.20
2017-09-25T23:11:49.257Z,14.50
2017-09-25T23:14:16.780Z,13.50
2017-09-25T23:16:44.269Z,14.70
2017-09-25T23:19:11.778Z,17.43
2017-09-25T23:21:40.065Z,15.37
2017-09-25T23:24:08.622Z,13.13
2017-09-25T23:26:36.101Z,14.20
2017-09-25T23:29:03.679Z,15.93
2017-09-25T23:31:37.821Z,15.17
2017-09-25T23:34:05.289Z,14.27
2017-09-25T23:36:33.219Z,16.23
2017-09-25T23:39:00.767Z,14.83
2017-09-25T23:41:28.245Z,14.83
2017-09-25T23:43:55.760Z,14.63
2017-09-25T23:46:23.996Z,14.13
2017-09-25T23:48:51.614Z,14.17
2017-09-25T23:51:19.831Z,13.03
2017-09-25T23:53:47.323Z,14.20
2017-09-25T23:56:14.883Z,13.80
2017-09-25T23:58:42.358Z,13.40
